Portada
METAR-TAF:

METAR-TAF

Aeropuertos :

Aeropuerto Internacional Flamingo

Bonaire, Antillas Neerlandesas

latitud: 12-09N, longitud: 068-17W, altitud: 6 m

Observación

El informe se hizo hace 22 minutos, a las 03:55 UTC
Viento 13 kt del este
Temperatura 28°C
Humedad 74%
Presión 1014 hPa

METAR: TNCB 190355Z AUTO 08013KT //// // NCD 28/23 Q1014 RE//

Hora: 00:17 (04:17 UTC)

Pronóstico

El informe se hizo hace 5 horas y 24 minutos, a las 22:53 UTC
Pronóstico válido del 19 a las 00 UTC al 20 a las 06 UTC
Viento 12 kt del este
Visibilidad 10 km o más
Nubes dispersas a una altura de 1800 ft

TAF: TNCB 182253Z 1900/2006 09012KT 9999 SCT018

Observaciones y pronósticos meteorológicos de más de 4000 aeropuertos (mensajes METAR y TAF).

Los puntos amarillos y rojos representan las estaciones disponibles.

Ponga el ratón en el punto deseado para ver el nombre de la estación.

Haga clic para ver las observaciones y los pronósticos meteorológicos.

Para cambiar el mapa : haga clic en los botones verdes con una cruz de color negro para hacer un zoom, en el botón verde con un guión para alejar o en las flechas verdes para mapas adyacentes.


METAR-TAF: